Terminal Aerodrome Forecast
Issued by NWS

Home | Current Version | Previous Version | Text Only | Print | Product List | Glossary On
Versions: 1 2 3 4 5 6 7 8 9 10 11 12 13
824
FTUS43 KLSX 242327
TAFCPS
TAF
KCPS 242327Z 2500/2524 19009KT P6SM BKN150
     FM251500 20008KT P6SM VCTS BKN050CB
     FM251900 17013KT P6SM SCT040 BKN250=

USA.gov is the U.S. government's official web portal to all federal, state and local government web resources and services.